sensor_id;sensor_type;location;lat;lon;timestamp;temperature;humidity
9865;DHT22;4971;52.398;9.774;2022-08-03T00:01:41;20.80;99.90
9865;DHT22;4971;52.398;9.774;2022-08-03T00:04:08;20.70;99.90
9865;DHT22;4971;52.398;9.774;2022-08-03T00:18:45;20.90;99.90
9865;DHT22;4971;52.398;9.774;2022-08-03T00:38:14;20.60;99.90
9865;DHT22;4971;52.398;9.774;2022-08-03T00:43:07;20.60;99.90
9865;DHT22;4971;52.398;9.774;2022-08-03T00:45:39;20.50;99.90
9865;DHT22;4971;52.398;9.774;2022-08-03T00:48:07;20.50;99.90
9865;DHT22;4971;52.398;9.774;2022-08-03T00:50:36;20.50;99.90
9865;DHT22;4971;52.398;9.774;2022-08-03T00:53:05;20.40;99.90
9865;DHT22;4971;52.398;9.774;2022-08-03T00:55:31;20.20;99.90
9865;DHT22;4971;52.398;9.774;2022-08-03T01:00:27;20.30;99.90
9865;DHT22;4971;52.398;9.774;2022-08-03T01:02:53;20.60;99.90
9865;DHT22;4971;52.398;9.774;2022-08-03T01:05:22;20.40;99.90
9865;DHT22;4971;52.398;9.774;2022-08-03T01:15:58;19.80;99.90
9865;DHT22;4971;52.398;9.774;2022-08-03T01:18:46;20.00;99.90
9865;DHT22;4971;52.398;9.774;2022-08-03T01:21:20;20.00;99.90
9865;DHT22;4971;52.398;9.774;2022-08-03T01:29:49;19.90;99.90
9865;DHT22;4971;52.398;9.774;2022-08-03T01:32:20;20.00;99.90
9865;DHT22;4971;52.398;9.774;2022-08-03T01:34:54;20.60;99.90
9865;DHT22;4971;52.398;9.774;2022-08-03T01:37:30;20.10;99.90
9865;DHT22;4971;52.398;9.774;2022-08-03T01:39:57;20.10;99.90
9865;DHT22;4971;52.398;9.774;2022-08-03T01:42:26;20.10;99.90
9865;DHT22;4971;52.398;9.774;2022-08-03T01:44:55;20.00;99.90
9865;DHT22;4971;52.398;9.774;2022-08-03T01:47:23;19.90;99.90
9865;DHT22;4971;52.398;9.774;2022-08-03T01:52:18;19.90;99.90
9865;DHT22;4971;52.398;9.774;2022-08-03T01:54:47;19.90;99.90
9865;DHT22;4971;52.398;9.774;2022-08-03T01:57:14;19.90;99.90
9865;DHT22;4971;52.398;9.774;2022-08-03T01:59:41;19.90;99.90
9865;DHT22;4971;52.398;9.774;2022-08-03T02:04:35;20.00;99.90
9865;DHT22;4971;52.398;9.774;2022-08-03T02:09:29;19.90;99.90
9865;DHT22;4971;52.398;9.774;2022-08-03T02:11:56;19.90;99.90
9865;DHT22;4971;52.398;9.774;2022-08-03T02:14:23;19.90;99.90
9865;DHT22;4971;52.398;9.774;2022-08-03T02:16:51;19.90;99.90
9865;DHT22;4971;52.398;9.774;2022-08-03T02:19:18;19.90;99.90
9865;DHT22;4971;52.398;9.774;2022-08-03T02:21:45;19.80;99.90
9865;DHT22;4971;52.398;9.774;2022-08-03T02:26:38;19.80;99.90
9865;DHT22;4971;52.398;9.774;2022-08-03T02:29:17;19.70;99.90
9865;DHT22;4971;52.398;9.774;2022-08-03T02:31:45;19.70;99.90
9865;DHT22;4971;52.398;9.774;2022-08-03T02:34:14;19.80;99.90
9865;DHT22;4971;52.398;9.774;2022-08-03T02:36:42;19.80;99.90
9865;DHT22;4971;52.398;9.774;2022-08-03T02:39:12;19.90;99.90
9865;DHT22;4971;52.398;9.774;2022-08-03T02:41:48;19.70;99.90
9865;DHT22;4971;52.398;9.774;2022-08-03T02:44:17;19.70;99.90
9865;DHT22;4971;52.398;9.774;2022-08-03T02:46:48;19.60;99.90
9865;DHT22;4971;52.398;9.774;2022-08-03T02:49:17;19.60;99.90
9865;DHT22;4971;52.398;9.774;2022-08-03T02:51:44;19.60;99.90
9865;DHT22;4971;52.398;9.774;2022-08-03T02:54:11;19.40;99.90
9865;DHT22;4971;52.398;9.774;2022-08-03T02:56:40;19.60;99.90
9865;DHT22;4971;52.398;9.774;2022-08-03T02:59:06;19.70;99.90
9865;DHT22;4971;52.398;9.774;2022-08-03T03:06:25;19.70;99.90
9865;DHT22;4971;52.398;9.774;2022-08-03T03:08:53;19.80;99.90
9865;DHT22;4971;52.398;9.774;2022-08-03T03:11:20;19.50;99.90
9865;DHT22;4971;52.398;9.774;2022-08-03T03:13:48;19.40;99.90
9865;DHT22;4971;52.398;9.774;2022-08-03T03:16:15;19.50;99.90
9865;DHT22;4971;52.398;9.774;2022-08-03T03:18:43;19.30;99.90
9865;DHT22;4971;52.398;9.774;2022-08-03T03:21:10;19.60;99.90
9865;DHT22;4971;52.398;9.774;2022-08-03T03:23:38;19.50;99.90
9865;DHT22;4971;52.398;9.774;2022-08-03T03:26:06;19.60;99.90
9865;DHT22;4971;52.398;9.774;2022-08-03T03:30:58;19.50;99.90
9865;DHT22;4971;52.398;9.774;2022-08-03T03:33:25;19.50;99.90
9865;DHT22;4971;52.398;9.774;2022-08-03T03:35:51;19.30;99.90
9865;DHT22;4971;52.398;9.774;2022-08-03T03:38:18;19.90;99.90
9865;DHT22;4971;52.398;9.774;2022-08-03T03:43:11;19.50;99.90
9865;DHT22;4971;52.398;9.774;2022-08-03T03:45:39;19.50;99.90
9865;DHT22;4971;52.398;9.774;2022-08-03T03:48:07;19.40;99.90
9865;DHT22;4971;52.398;9.774;2022-08-03T03:50:34;19.50;99.90
9865;DHT22;4971;52.398;9.774;2022-08-03T03:53:01;19.70;99.90
9865;DHT22;4971;52.398;9.774;2022-08-03T03:55:27;21.50;99.90
9865;DHT22;4971;52.398;9.774;2022-08-03T03:57:54;19.60;99.90
9865;DHT22;4971;52.398;9.774;2022-08-03T04:00:21;19.50;99.90
9865;DHT22;4971;52.398;9.774;2022-08-03T04:05:14;19.60;99.90
9865;DHT22;4971;52.398;9.774;2022-08-03T04:08:01;19.80;99.90
9865;DHT22;4971;52.398;9.774;2022-08-03T04:13:33;19.70;99.90
9865;DHT22;4971;52.398;9.774;2022-08-03T04:16:00;19.70;99.90
9865;DHT22;4971;52.398;9.774;2022-08-03T04:18:28;19.70;99.90
9865;DHT22;4971;52.398;9.774;2022-08-03T04:23:36;19.80;99.90
9865;DHT22;4971;52.398;9.774;2022-08-03T04:26:02;19.80;99.90
9865;DHT22;4971;52.398;9.774;2022-08-03T04:28:31;19.90;99.90
9865;DHT22;4971;52.398;9.774;2022-08-03T04:31:00;19.90;99.90
9865;DHT22;4971;52.398;9.774;2022-08-03T04:33:30;19.80;99.90
9865;DHT22;4971;52.398;9.774;2022-08-03T04:35:58;19.80;99.90
9865;DHT22;4971;52.398;9.774;2022-08-03T04:38:25;19.80;99.90
9865;DHT22;4971;52.398;9.774;2022-08-03T04:43:20;19.90;99.90
9865;DHT22;4971;52.398;9.774;2022-08-03T04:45:47;19.90;99.90
9865;DHT22;4971;52.398;9.774;2022-08-03T04:50:45;19.90;99.90
9865;DHT22;4971;52.398;9.774;2022-08-03T05:05:23;20.00;99.90
9865;DHT22;4971;52.398;9.774;2022-08-03T05:12:41;20.20;99.90
9865;DHT22;4971;52.398;9.774;2022-08-03T05:15:07;19.90;99.90
9865;DHT22;4971;52.398;9.774;2022-08-03T05:27:18;20.20;99.90
9865;DHT22;4971;52.398;9.774;2022-08-03T05:29:48;20.30;99.90
9865;DHT22;4971;52.398;9.774;2022-08-03T05:32:15;20.50;99.90
9865;DHT22;4971;52.398;9.774;2022-08-03T05:34:41;20.30;99.90
9865;DHT22;4971;52.398;9.774;2022-08-03T05:37:07;20.30;99.90
9865;DHT22;4971;52.398;9.774;2022-08-03T05:42:00;20.50;99.90
9865;DHT22;4971;52.398;9.774;2022-08-03T05:49:19;20.80;99.90
9865;DHT22;4971;52.398;9.774;2022-08-03T05:51:45;20.90;99.90
9865;DHT22;4971;52.398;9.774;2022-08-03T05:59:05;20.70;99.90
9865;DHT22;4971;52.398;9.774;2022-08-03T06:04:01;21.40;99.90
9865;DHT22;4971;52.398;9.774;2022-08-03T06:06:29;25.50;99.90
9865;DHT22;4971;52.398;9.774;2022-08-03T06:11:21;21.60;99.90
9865;DHT22;4971;52.398;9.774;2022-08-03T06:16:13;21.60;99.90
9865;DHT22;4971;52.398;9.774;2022-08-03T06:40:35;22.00;99.90
9865;DHT22;4971;52.398;9.774;2022-08-03T06:43:05;22.20;99.90
9865;DHT22;4971;52.398;9.774;2022-08-03T06:48:01;22.30;99.90
9865;DHT22;4971;52.398;9.774;2022-08-03T06:50:28;22.60;99.90
9865;DHT22;4971;52.398;9.774;2022-08-03T07:00:12;22.90;99.90
9865;DHT22;4971;52.398;9.774;2022-08-03T07:02:39;22.90;99.90
9865;DHT22;4971;52.398;9.774;2022-08-03T07:05:05;22.80;99.90
9865;DHT22;4971;52.398;9.774;2022-08-03T07:12:25;23.10;99.90
9865;DHT22;4971;52.398;9.774;2022-08-03T07:14:55;24.80;99.90
9865;DHT22;4971;52.398;9.774;2022-08-03T07:22:14;23.40;99.90
9865;DHT22;4971;52.398;9.774;2022-08-03T07:24:58;23.40;99.90
9865;DHT22;4971;52.398;9.774;2022-08-03T07:29:55;23.50;99.90
9865;DHT22;4971;52.398;9.774;2022-08-03T07:35:09;23.40;99.90
9865;DHT22;4971;52.398;9.774;2022-08-03T07:37:36;23.50;99.90
9865;DHT22;4971;52.398;9.774;2022-08-03T07:40:03;23.60;99.90
9865;DHT22;4971;52.398;9.774;2022-08-03T07:42:30;24.00;99.90
9865;DHT22;4971;52.398;9.774;2022-08-03T07:44:56;24.00;99.90
9865;DHT22;4971;52.398;9.774;2022-08-03T07:47:27;24.20;99.90
9865;DHT22;4971;52.398;9.774;2022-08-03T07:49:54;24.20;99.90
9865;DHT22;4971;52.398;9.774;2022-08-03T07:52:19;24.30;99.90
9865;DHT22;4971;52.398;9.774;2022-08-03T07:55:05;24.20;99.90
9865;DHT22;4971;52.398;9.774;2022-08-03T07:57:31;24.20;99.90
9865;DHT22;4971;52.398;9.774;2022-08-03T07:59:57;24.30;99.90
9865;DHT22;4971;52.398;9.774;2022-08-03T08:02:23;24.50;99.90
9865;DHT22;4971;52.398;9.774;2022-08-03T08:04:49;24.70;99.90
9865;DHT22;4971;52.398;9.774;2022-08-03T08:09:41;24.70;99.90
9865;DHT22;4971;52.398;9.774;2022-08-03T08:36:33;25.90;99.90
9865;DHT22;4971;52.398;9.774;2022-08-03T08:43:53;26.50;99.90
9865;DHT22;4971;52.398;9.774;2022-08-03T08:51:12;27.10;99.90
9865;DHT22;4971;52.398;9.774;2022-08-03T08:53:40;27.60;99.90
9865;DHT22;4971;52.398;9.774;2022-08-03T08:56:06;27.80;99.90
9865;DHT22;4971;52.398;9.774;2022-08-03T08:58:36;28.10;99.90
9865;DHT22;4971;52.398;9.774;2022-08-03T09:01:03;28.50;99.90
9865;DHT22;4971;52.398;9.774;2022-08-03T09:03:30;28.90;99.90
9865;DHT22;4971;52.398;9.774;2022-08-03T09:06:00;29.20;99.90
9865;DHT22;4971;52.398;9.774;2022-08-03T09:10:52;29.40;99.90
9865;DHT22;4971;52.398;9.774;2022-08-03T09:20:38;29.90;99.40
9865;DHT22;4971;52.398;9.774;2022-08-03T09:23:06;30.50;97.10
9865;DHT22;4971;52.398;9.774;2022-08-03T09:30:32;31.80;90.30
9865;DHT22;4971;52.398;9.774;2022-08-03T09:33:05;31.50;90.20
9865;DHT22;4971;52.398;9.774;2022-08-03T09:38:12;31.90;87.80
9865;DHT22;4971;52.398;9.774;2022-08-03T09:45:33;32.20;82.70
9865;DHT22;4971;52.398;9.774;2022-08-03T09:48:21;31.80;81.40
9865;DHT22;4971;52.398;9.774;2022-08-03T09:50:58;32.10;82.90
9865;DHT22;4971;52.398;9.774;2022-08-03T09:55:58;32.30;81.40
9865;DHT22;4971;52.398;9.774;2022-08-03T09:58:25;32.10;82.50
9865;DHT22;4971;52.398;9.774;2022-08-03T10:03:21;31.90;80.00
9865;DHT22;4971;52.398;9.774;2022-08-03T10:08:17;33.10;72.20
9865;DHT22;4971;52.398;9.774;2022-08-03T10:10:45;33.40;72.40
9865;DHT22;4971;52.398;9.774;2022-08-03T10:13:13;33.30;68.60
9865;DHT22;4971;52.398;9.774;2022-08-03T10:15:39;33.00;68.30
9865;DHT22;4971;52.398;9.774;2022-08-03T10:18:06;33.10;67.60
9865;DHT22;4971;52.398;9.774;2022-08-03T10:20:36;32.50;70.30
9865;DHT22;4971;52.398;9.774;2022-08-03T10:25:29;32.90;69.60
9865;DHT22;4971;52.398;9.774;2022-08-03T10:27:56;33.10;70.20
9865;DHT22;4971;52.398;9.774;2022-08-03T10:30:24;32.90;64.90
9865;DHT22;4971;52.398;9.774;2022-08-03T10:35:28;32.90;67.50
9865;DHT22;4971;52.398;9.774;2022-08-03T10:37:59;32.40;67.80
9865;DHT22;4971;52.398;9.774;2022-08-03T10:40:28;32.40;69.30
9865;DHT22;4971;52.398;9.774;2022-08-03T10:42:58;32.60;71.10
9865;DHT22;4971;52.398;9.774;2022-08-03T10:45:29;32.80;66.40
9865;DHT22;4971;52.398;9.774;2022-08-03T10:47:59;32.60;66.10
9865;DHT22;4971;52.398;9.774;2022-08-03T10:53:01;33.20;62.40
9865;DHT22;4971;52.398;9.774;2022-08-03T10:58:52;33.60;61.90
9865;DHT22;4971;52.398;9.774;2022-08-03T11:01:48;33.50;60.20
9865;DHT22;4971;52.398;9.774;2022-08-03T11:11:36;33.20;63.40
9865;DHT22;4971;52.398;9.774;2022-08-03T11:16:37;32.00;61.90
9865;DHT22;4971;52.398;9.774;2022-08-03T11:19:09;31.90;62.20
9865;DHT22;4971;52.398;9.774;2022-08-03T11:27:20;31.00;65.10
9865;DHT22;4971;52.398;9.774;2022-08-03T11:30:04;30.70;66.90
9865;DHT22;4971;52.398;9.774;2022-08-03T11:45:27;30.70;66.80
9865;DHT22;4971;52.398;9.774;2022-08-03T11:47:54;31.50;66.40
9865;DHT22;4971;52.398;9.774;2022-08-03T11:52:47;30.60;65.80
9865;DHT22;4971;52.398;9.774;2022-08-03T11:55:15;30.60;65.90
9865;DHT22;4971;52.398;9.774;2022-08-03T12:00:28;30.50;66.80
9865;DHT22;4971;52.398;9.774;2022-08-03T12:05:20;30.40;67.20
9865;DHT22;4971;52.398;9.774;2022-08-03T12:07:56;30.40;65.00
9865;DHT22;4971;52.398;9.774;2022-08-03T12:12:55;30.50;64.40
9865;DHT22;4971;52.398;9.774;2022-08-03T12:15:29;30.40;66.60
9865;DHT22;4971;52.398;9.774;2022-08-03T12:17:56;30.40;64.40
9865;DHT22;4971;52.398;9.774;2022-08-03T12:20:24;30.40;65.30
9865;DHT22;4971;52.398;9.774;2022-08-03T12:22:50;30.40;66.40
9865;DHT22;4971;52.398;9.774;2022-08-03T12:25:26;30.00;65.90
9865;DHT22;4971;52.398;9.774;2022-08-03T12:27:53;30.40;66.60
9865;DHT22;4971;52.398;9.774;2022-08-03T12:30:30;30.50;67.10
9865;DHT22;4971;52.398;9.774;2022-08-03T12:35:23;30.30;66.00
9865;DHT22;4971;52.398;9.774;2022-08-03T12:37:52;30.20;64.70
9865;DHT22;4971;52.398;9.774;2022-08-03T12:40:25;30.20;65.10
9865;DHT22;4971;52.398;9.774;2022-08-03T12:42:51;30.10;65.60
9865;DHT22;4971;52.398;9.774;2022-08-03T12:48:13;30.00;64.90
9865;DHT22;4971;52.398;9.774;2022-08-03T12:53:08;30.10;63.30
9865;DHT22;4971;52.398;9.774;2022-08-03T12:58:07;30.10;67.60
9865;DHT22;4971;52.398;9.774;2022-08-03T13:00:35;30.10;66.40
9865;DHT22;4971;52.398;9.774;2022-08-03T13:03:03;30.10;65.60
9865;DHT22;4971;52.398;9.774;2022-08-03T13:05:30;30.10;66.60
9865;DHT22;4971;52.398;9.774;2022-08-03T13:07:56;30.00;66.30
9865;DHT22;4971;52.398;9.774;2022-08-03T13:10:32;29.90;66.70
9865;DHT22;4971;52.398;9.774;2022-08-03T13:17:55;30.00;65.80
9865;DHT22;4971;52.398;9.774;2022-08-03T13:20:21;30.20;65.10
9865;DHT22;4971;52.398;9.774;2022-08-03T13:27:40;30.40;65.30
9865;DHT22;4971;52.398;9.774;2022-08-03T13:30:06;30.20;65.60
9865;DHT22;4971;52.398;9.774;2022-08-03T13:32:33;30.00;66.50
9865;DHT22;4971;52.398;9.774;2022-08-03T13:37:25;30.10;67.40
9865;DHT22;4971;52.398;9.774;2022-08-03T13:39:50;30.00;66.80
9865;DHT22;4971;52.398;9.774;2022-08-03T13:52:00;30.00;65.00
9865;DHT22;4971;52.398;9.774;2022-08-03T13:56:53;30.10;62.70
9865;DHT22;4971;52.398;9.774;2022-08-03T13:59:19;30.10;63.20
9865;DHT22;4971;52.398;9.774;2022-08-03T14:01:49;30.20;58.80
9865;DHT22;4971;52.398;9.774;2022-08-03T14:04:15;30.20;56.60
9865;DHT22;4971;52.398;9.774;2022-08-03T14:06:41;30.30;56.60
9865;DHT22;4971;52.398;9.774;2022-08-03T14:21:18;30.40;59.10
9865;DHT22;4971;52.398;9.774;2022-08-03T14:28:36;30.10;60.20
9865;DHT22;4971;52.398;9.774;2022-08-03T14:31:03;30.10;59.80
9865;DHT22;4971;52.398;9.774;2022-08-03T14:33:28;30.20;59.60
9865;DHT22;4971;52.398;9.774;2022-08-03T14:40:47;30.40;59.70
9865;DHT22;4971;52.398;9.774;2022-08-03T14:43:13;30.40;59.50
9865;DHT22;4971;52.398;9.774;2022-08-03T14:45:40;30.40;58.00
9865;DHT22;4971;52.398;9.774;2022-08-03T14:55:24;30.00;58.60
9865;DHT22;4971;52.398;9.774;2022-08-03T14:57:49;30.10;59.90
9865;DHT22;4971;52.398;9.774;2022-08-03T15:02:41;30.20;59.80
9865;DHT22;4971;52.398;9.774;2022-08-03T15:05:07;30.20;60.60
9865;DHT22;4971;52.398;9.774;2022-08-03T15:19:45;30.40;60.60
9865;DHT22;4971;52.398;9.774;2022-08-03T15:22:10;30.30;59.30
9865;DHT22;4971;52.398;9.774;2022-08-03T15:24:38;30.40;59.10
9865;DHT22;4971;52.398;9.774;2022-08-03T15:51:24;30.40;60.90
9865;DHT22;4971;52.398;9.774;2022-08-03T15:53:50;30.30;62.10
9865;DHT22;4971;52.398;9.774;2022-08-03T15:56:15;30.30;60.70
9865;DHT22;4971;52.398;9.774;2022-08-03T16:06:04;30.10;61.00
9865;DHT22;4971;52.398;9.774;2022-08-03T16:08:30;30.10;62.70
9865;DHT22;4971;52.398;9.774;2022-08-03T16:10:57;30.00;62.50
9865;DHT22;4971;52.398;9.774;2022-08-03T16:15:52;30.00;63.40
9865;DHT22;4971;52.398;9.774;2022-08-03T16:18:18;29.90;63.10
9865;DHT22;4971;52.398;9.774;2022-08-03T16:20:44;29.90;63.00
9865;DHT22;4971;52.398;9.774;2022-08-03T16:23:10;29.80;62.80
9865;DHT22;4971;52.398;9.774;2022-08-03T16:45:08;29.70;64.20
9865;DHT22;4971;52.398;9.774;2022-08-03T16:47:34;29.60;64.50
9865;DHT22;4971;52.398;9.774;2022-08-03T16:49:59;29.70;63.10
9865;DHT22;4971;52.398;9.774;2022-08-03T16:54:52;29.30;62.90
9865;DHT22;4971;52.398;9.774;2022-08-03T17:02:28;29.90;62.40
9865;DHT22;4971;52.398;9.774;2022-08-03T17:04:55;29.60;62.50
9865;DHT22;4971;52.398;9.774;2022-08-03T17:07:21;29.80;62.80
9865;DHT22;4971;52.398;9.774;2022-08-03T17:09:48;29.80;62.80
9865;DHT22;4971;52.398;9.774;2022-08-03T17:12:14;29.80;63.50
9865;DHT22;4971;52.398;9.774;2022-08-03T17:14:41;29.70;63.20
9865;DHT22;4971;52.398;9.774;2022-08-03T17:17:26;29.60;62.40
9865;DHT22;4971;52.398;9.774;2022-08-03T17:19:53;29.80;63.40
9865;DHT22;4971;52.398;9.774;2022-08-03T17:22:24;29.80;63.40
9865;DHT22;4971;52.398;9.774;2022-08-03T17:24:52;29.70;63.70
9865;DHT22;4971;52.398;9.774;2022-08-03T17:27:28;29.70;63.00
9865;DHT22;4971;52.398;9.774;2022-08-03T17:32:32;29.70;63.50
9865;DHT22;4971;52.398;9.774;2022-08-03T17:34:59;29.60;64.60
9865;DHT22;4971;52.398;9.774;2022-08-03T17:37:25;29.50;65.00
9865;DHT22;4971;52.398;9.774;2022-08-03T17:39:52;29.60;65.60
9865;DHT22;4971;52.398;9.774;2022-08-03T17:42:18;29.70;66.30
9865;DHT22;4971;52.398;9.774;2022-08-03T17:52:05;29.30;67.60
9865;DHT22;4971;52.398;9.774;2022-08-03T17:57:34;29.30;68.10
9865;DHT22;4971;52.398;9.774;2022-08-03T18:00:10;29.30;67.80
9865;DHT22;4971;52.398;9.774;2022-08-03T18:11:09;29.10;68.30
9865;DHT22;4971;52.398;9.774;2022-08-03T18:14:04;29.00;68.60
9865;DHT22;4971;52.398;9.774;2022-08-03T18:16:33;29.00;68.90
9865;DHT22;4971;52.398;9.774;2022-08-03T18:21:28;29.00;70.10
9865;DHT22;4971;52.398;9.774;2022-08-03T18:23:54;28.90;70.50
9865;DHT22;4971;52.398;9.774;2022-08-03T18:26:21;28.80;70.70
9865;DHT22;4971;52.398;9.774;2022-08-03T18:31:15;28.80;71.10
9865;DHT22;4971;52.398;9.774;2022-08-03T18:33:41;28.70;71.10
9865;DHT22;4971;52.398;9.774;2022-08-03T18:36:10;28.60;71.80
9865;DHT22;4971;52.398;9.774;2022-08-03T18:38:41;28.50;72.40
9865;DHT22;4971;52.398;9.774;2022-08-03T18:43:34;28.70;73.70
9865;DHT22;4971;52.398;9.774;2022-08-03T18:46:03;28.40;74.00
9865;DHT22;4971;52.398;9.774;2022-08-03T18:48:58;28.30;74.50
9865;DHT22;4971;52.398;9.774;2022-08-03T18:51:27;28.30;75.10
9865;DHT22;4971;52.398;9.774;2022-08-03T18:54:28;28.20;75.60
9865;DHT22;4971;52.398;9.774;2022-08-03T18:56:56;28.30;76.70
9865;DHT22;4971;52.398;9.774;2022-08-03T18:59:25;28.00;76.90
9865;DHT22;4971;52.398;9.774;2022-08-03T19:01:54;28.00;77.20
9865;DHT22;4971;52.398;9.774;2022-08-03T19:04:34;28.00;77.70
9865;DHT22;4971;52.398;9.774;2022-08-03T19:07:08;27.70;78.00
9865;DHT22;4971;52.398;9.774;2022-08-03T19:09:47;27.80;79.10
9865;DHT22;4971;52.398;9.774;2022-08-03T19:12:21;27.70;80.50
9865;DHT22;4971;52.398;9.774;2022-08-03T19:15:05;27.60;83.80
9865;DHT22;4971;52.398;9.774;2022-08-03T19:17:33;27.50;85.40
9865;DHT22;4971;52.398;9.774;2022-08-03T19:20:03;27.50;87.50
9865;DHT22;4971;52.398;9.774;2022-08-03T19:22:31;27.60;88.50
9865;DHT22;4971;52.398;9.774;2022-08-03T19:24:59;27.30;89.80
9865;DHT22;4971;52.398;9.774;2022-08-03T19:27:27;27.10;90.40
9865;DHT22;4971;52.398;9.774;2022-08-03T19:29:56;27.20;90.70
9865;DHT22;4971;52.398;9.774;2022-08-03T19:32:22;27.00;91.00
9865;DHT22;4971;52.398;9.774;2022-08-03T19:34:50;27.00;91.40
9865;DHT22;4971;52.398;9.774;2022-08-03T19:37:16;26.90;92.00
9865;DHT22;4971;52.398;9.774;2022-08-03T19:39:42;27.20;92.70
9865;DHT22;4971;52.398;9.774;2022-08-03T19:42:14;26.70;93.10
9865;DHT22;4971;52.398;9.774;2022-08-03T19:44:50;26.60;93.80
9865;DHT22;4971;52.398;9.774;2022-08-03T19:47:41;26.50;94.40
9865;DHT22;4971;52.398;9.774;2022-08-03T19:52:38;26.30;95.80
9865;DHT22;4971;52.398;9.774;2022-08-03T19:55:11;26.30;96.30
9865;DHT22;4971;52.398;9.774;2022-08-03T19:57:37;26.30;97.20
9865;DHT22;4971;52.398;9.774;2022-08-03T20:00:07;26.20;97.80
9865;DHT22;4971;52.398;9.774;2022-08-03T20:05:01;26.00;99.50
9865;DHT22;4971;52.398;9.774;2022-08-03T20:07:29;25.90;99.90
9865;DHT22;4971;52.398;9.774;2022-08-03T20:09:59;25.90;99.90
9865;DHT22;4971;52.398;9.774;2022-08-03T20:12:29;25.80;99.90
9865;DHT22;4971;52.398;9.774;2022-08-03T20:14:56;25.10;99.90
9865;DHT22;4971;52.398;9.774;2022-08-03T20:17:22;26.00;99.90
9865;DHT22;4971;52.398;9.774;2022-08-03T20:19:51;25.70;99.90
9865;DHT22;4971;52.398;9.774;2022-08-03T20:22:20;25.60;99.90
9865;DHT22;4971;52.398;9.774;2022-08-03T20:24:50;25.60;99.90
9865;DHT22;4971;52.398;9.774;2022-08-03T20:27:19;25.50;99.90
9865;DHT22;4971;52.398;9.774;2022-08-03T20:29:47;25.40;99.90
9865;DHT22;4971;52.398;9.774;2022-08-03T20:32:14;25.40;99.90
9865;DHT22;4971;52.398;9.774;2022-08-03T20:34:40;25.40;99.90
9865;DHT22;4971;52.398;9.774;2022-08-03T20:42:02;25.20;99.90
9865;DHT22;4971;52.398;9.774;2022-08-03T20:44:29;25.00;99.90
9865;DHT22;4971;52.398;9.774;2022-08-03T20:51:49;23.10;99.90
9865;DHT22;4971;52.398;9.774;2022-08-03T20:54:16;24.90;99.90
9865;DHT22;4971;52.398;9.774;2022-08-03T20:56:42;25.00;99.90
9865;DHT22;4971;52.398;9.774;2022-08-03T20:59:08;24.80;99.90
9865;DHT22;4971;52.398;9.774;2022-08-03T21:01:35;24.70;99.90
9865;DHT22;4971;52.398;9.774;2022-08-03T21:04:05;24.70;99.90
9865;DHT22;4971;52.398;9.774;2022-08-03T21:06:34;24.70;99.90
9865;DHT22;4971;52.398;9.774;2022-08-03T21:09:04;24.70;99.90
9865;DHT22;4971;52.398;9.774;2022-08-03T21:11:43;24.80;99.90
9865;DHT22;4971;52.398;9.774;2022-08-03T21:14:30;24.60;99.90
9865;DHT22;4971;52.398;9.774;2022-08-03T21:16:57;24.50;99.90
9865;DHT22;4971;52.398;9.774;2022-08-03T21:19:25;24.50;99.90
9865;DHT22;4971;52.398;9.774;2022-08-03T21:21:54;24.50;99.90
9865;DHT22;4971;52.398;9.774;2022-08-03T21:24:23;24.40;99.90
9865;DHT22;4971;52.398;9.774;2022-08-03T21:26:52;24.50;99.90
9865;DHT22;4971;52.398;9.774;2022-08-03T21:29:22;24.40;99.90
9865;DHT22;4971;52.398;9.774;2022-08-03T21:36:40;24.30;99.90
9865;DHT22;4971;52.398;9.774;2022-08-03T21:39:08;24.30;99.90
9865;DHT22;4971;52.398;9.774;2022-08-03T21:41:35;24.20;99.90
9865;DHT22;4971;52.398;9.774;2022-08-03T21:44:03;24.10;99.90
9865;DHT22;4971;52.398;9.774;2022-08-03T21:46:33;23.90;99.90
9865;DHT22;4971;52.398;9.774;2022-08-03T21:49:02;24.10;99.90
9865;DHT22;4971;52.398;9.774;2022-08-03T21:51:31;24.00;99.90
9865;DHT22;4971;52.398;9.774;2022-08-03T21:56:25;23.90;99.90
9865;DHT22;4971;52.398;9.774;2022-08-03T21:58:59;24.10;99.90
9865;DHT22;4971;52.398;9.774;2022-08-03T22:01:31;23.90;99.90
9865;DHT22;4971;52.398;9.774;2022-08-03T22:03:57;23.80;99.90
9865;DHT22;4971;52.398;9.774;2022-08-03T22:06:24;23.80;99.90
9865;DHT22;4971;52.398;9.774;2022-08-03T22:08:51;24.40;99.90
9865;DHT22;4971;52.398;9.774;2022-08-03T22:11:18;23.60;99.90
9865;DHT22;4971;52.398;9.774;2022-08-03T22:21:28;23.60;99.90
9865;DHT22;4971;52.398;9.774;2022-08-03T22:23:57;23.60;99.90
9865;DHT22;4971;52.398;9.774;2022-08-03T22:26:26;23.80;99.90
9865;DHT22;4971;52.398;9.774;2022-08-03T22:28:53;23.50;99.90
9865;DHT22;4971;52.398;9.774;2022-08-03T22:33:46;23.70;99.90
9865;DHT22;4971;52.398;9.774;2022-08-03T22:36:19;23.30;99.90
9865;DHT22;4971;52.398;9.774;2022-08-03T22:38:51;23.30;99.90
9865;DHT22;4971;52.398;9.774;2022-08-03T22:41:17;20.60;99.90
9865;DHT22;4971;52.398;9.774;2022-08-03T22:46:09;23.30;99.90
9865;DHT22;4971;52.398;9.774;2022-08-03T22:48:36;23.20;99.90
9865;DHT22;4971;52.398;9.774;2022-08-03T22:51:03;23.20;99.90
9865;DHT22;4971;52.398;9.774;2022-08-03T22:55:56;23.20;99.90
9865;DHT22;4971;52.398;9.774;2022-08-03T22:58:23;23.20;99.90
9865;DHT22;4971;52.398;9.774;2022-08-03T23:00:57;23.10;99.90
9865;DHT22;4971;52.398;9.774;2022-08-03T23:03:30;23.10;99.90
9865;DHT22;4971;52.398;9.774;2022-08-03T23:05:58;23.00;99.90
9865;DHT22;4971;52.398;9.774;2022-08-03T23:08:26;23.00;99.90
9865;DHT22;4971;52.398;9.774;2022-08-03T23:10:52;23.00;99.90
9865;DHT22;4971;52.398;9.774;2022-08-03T23:13:26;22.90;99.90
9865;DHT22;4971;52.398;9.774;2022-08-03T23:15:57;23.30;99.90
9865;DHT22;4971;52.398;9.774;2022-08-03T23:18:27;22.60;99.90
9865;DHT22;4971;52.398;9.774;2022-08-03T23:20:57;23.10;99.90
9865;DHT22;4971;52.398;9.774;2022-08-03T23:23:23;22.80;99.90
9865;DHT22;4971;52.398;9.774;2022-08-03T23:25:50;23.40;99.90
9865;DHT22;4971;52.398;9.774;2022-08-03T23:28:17;22.80;99.90
9865;DHT22;4971;52.398;9.774;2022-08-03T23:30:48;22.80;99.90
9865;DHT22;4971;52.398;9.774;2022-08-03T23:33:15;22.80;99.90
9865;DHT22;4971;52.398;9.774;2022-08-03T23:35:43;22.70;99.90
9865;DHT22;4971;52.398;9.774;2022-08-03T23:38:28;22.70;99.90
9865;DHT22;4971;52.398;9.774;2022-08-03T23:40:59;22.60;99.90
9865;DHT22;4971;52.398;9.774;2022-08-03T23:43:28;22.70;99.90
9865;DHT22;4971;52.398;9.774;2022-08-03T23:45:56;22.10;99.90
9865;DHT22;4971;52.398;9.774;2022-08-03T23:48:23;22.10;99.90
9865;DHT22;4971;52.398;9.774;2022-08-03T23:50:59;22.70;99.90
9865;DHT22;4971;52.398;9.774;2022-08-03T23:53:36;22.30;99.90
